Table Name: State3_h

TimeStamp Record AirTF_Avg WindCh_Avg HeatIn_Avg AirTD_F_Avg RH BP_mbar_Avg Rain_in_Tot Wnd_mph WindDir NetSW_Avg NetLW_Avg NetRad_Avg AirF_0m_Avg Snow_Dp Soil_temp_Avg VWC_Avg
2022-08-10 21:00:00.0 21132 76.03 76.03 76.03 69.29 80.4 1019.736 0 0 9.15 3.056 -13.18 -10.12 76.39 66 NAN NAN
2022-08-10 22:00:00.0 21133 74.37 74.37 74.37 68.3 82.1 1019.997 0 0 2.325 -1.181 -20.96 -22.14 74.4 66 NAN NAN
2022-08-10 23:00:00.0 21134 73.26 73.26 73.26 68.02 84 1020.286 0 0 33.08 -0.828 -12.8 -13.63 73.13 66 NAN NAN
2022-08-11 00:00:00.0 21135 72.66 72.66 72.66 67.99 85.9 1020.075 0 0 28.88 -1.087 -18.08 -19.17 72.52 66 NAN NAN
2022-08-11 01:00:00.0 21136 71.86 71.86 71.86 67.5 86.4 1019.924 0 0 39.22 -1.925 -34.38 -36.3 71.48 66 NAN NAN
2022-08-11 02:00:00.0 21137 69.88 69.88 69.88 65.91 88.2 1019.972 0 0 341 -2.04 -31.01 -33.05 68.92 66 NAN NAN
2022-08-11 03:00:00.0 21138 68.78 68.78 68.78 65.33 89.1 1019.795 0 0 34.76 -1.859 -17.53 -19.38 67.61 66 NAN NAN
2022-08-11 04:00:00.0 21139 68.4 68.4 68.4 65.12 89.5 1019.741 0 0 266.8 -1.657 -14.11 -15.76 67.55 66 NAN NAN
2022-08-11 05:00:00.0 21140 67.67 67.67 67.67 64.53 89.9 1019.833 0 0 212.7 -1.521 -11.45 -12.97 66.72 66 NAN NAN
2022-08-11 06:00:00.0 21141 66.61 66.61 66.61 63.55 90.1 1019.708 0 0 315.8 -2.065 -12.27 -14.33 65.69 66 NAN NAN
2022-08-11 07:00:00.0 21142 65.29 65.29 65.29 62.37 90.5 1019.785 0 0 266.4 -0.446 -12.67 -13.11 64.24 66 NAN NAN
2022-08-11 08:00:00.0 21143 65.78 65.78 65.78 62.97 90.6 1020.063 0 0 348.6 37.51 -13.45 24.06 65.18 66 NAN NAN
2022-08-11 09:00:00.0 21144 69.21 69.21 69.21 66.12 87 1020.433 0 0 196.1 137.4 -31.5 105.9 70.19 66 NAN NAN
2022-08-11 10:00:00.0 21145 73.51 73.51 73.51 65.9 68.07 1020.62 0 0 8.9 249 -89.5 159.5 76.43 66 NAN NAN
2022-08-11 11:00:00.0 21146 75.63 75.63 75.63 61.96 55.72 1020.647 0 0 347.5 293.9 -84.7 209.2 80.9 66 NAN NAN
2022-08-11 12:00:00.0 21147 77.21 77.21 77.21 59.69 50.86 1020.834 0 0 37.17 464.9 -86.1 378.8 84.1 66 NAN NAN
2022-08-11 13:00:00.0 21148 79.14 79.14 79.17 57.81 42.4 1020.517 0 0 104.4 531 -98.5 432.5 87.7 66 NAN NAN
2022-08-11 14:00:00.0 21149 79.73 79.73 79.86 57.68 50.86 1019.943 0 0.044 31.4 402.7 -83.3 319.4 87.9 66 NAN NAN
2022-08-11 15:00:00.0 21150 80.3 80.3 80.5 58.23 48.02 1019.672 0 0 0.927 376.1 -66.25 309.9 86 66 NAN NAN
2022-08-11 16:00:00.0 21151 81.3 81.3 81.6 59.18 45.63 1019.13 0 1.929 1.608 470.1 -90.7 379.4 85.9 66 NAN NAN
2022-08-11 17:00:00.0 21152 81.7 81.7 82.1 59.84 53.08 1018.5 0 0 17.53 269.6 -62.97 206.6 88.9 66 NAN NAN
2022-08-11 18:00:00.0 21153 79.55 79.55 79.83 62.9 60.34 1018.176 0 0 297.8 106.5 -45.78 60.7 82.5 66 NAN NAN
2022-08-11 19:00:00.0 21154 78.46 78.46 78.46 64.55 63.96 1017.933 0 0 280.5 88.1 -44.14 43.93 80.5 66 NAN NAN
2022-08-11 20:00:00.0 21155 71.38 71.38 71.38 61.17 82.1 1018.579 0.06 0 209.6 9.54 -13.86 -4.318 71.45 66 NAN NAN
2022-08-11 21:00:00.0 21156 67.64 67.64 67.64 63.26 87.8 1019.223 0.09 0 36.73 0.569 -7.623 -7.054 66.51 66 NAN NAN
2022-08-11 22:00:00.0 21157 67.71 67.71 67.71 64.06 88.2 1019.918 0 0 32.63 -1.042 -17.99 -19.03 67.04 66 NAN NAN
2022-08-11 23:00:00.0 21158 66.82 66.82 66.82 63.24 88.3 1020.395 0 0 331 -2.262 -29.63 -31.89 65.91 66 NAN NAN
2022-08-12 00:00:00.0 21159 65.57 65.57 65.57 62.05 88.4 1020.535 0 0 332.8 -2.121 -23.23 -25.35 64.4 66 NAN NAN
2022-08-12 01:00:00.0 21160 64.4 64.4 64.4 60.98 88.3 1020.546 0 0 37.92 -2.009 -25.12 -27.13 63.57 66 NAN NAN
2022-08-12 02:00:00.0 21161 62.86 62.86 62.86 59.24 87.4 1020.828 0 0 54.85 -2.942 -34.09 -37.03 61.43 66 NAN NAN
2022-08-12 03:00:00.0 21162 61.11 61.11 61.11 57.26 87.5 1021.208 0 0 342.6 -3.289 -33.42 -36.71 59.26 66 NAN NAN
2022-08-12 04:00:00.0 21163 59.51 59.51 59.51 56.02 88.7 1021.267 0 0 91.6 -3.16 -27.42 -30.58 57.56 66 NAN NAN
2022-08-12 05:00:00.0 21164 57.96 57.96 57.96 54.78 89.8 1021.236 0 0 351.2 -3.142 -26.04 -29.18 56.11 66 NAN NAN
2022-08-12 06:00:00.0 21165 57.14 57.14 57.14 54.16 89.9 1021.348 0 0 335.6 -2.823 -23.89 -26.72 55.36 66 NAN NAN
2022-08-12 07:00:00.0 21166 56.39 56.39 56.39 53.55 90.1 1022.004 0 0 35.28 -1.307 -24.1 -25.4 54.62 66 NAN NAN
2022-08-12 08:00:00.0 21167 57.37 57.37 57.37 54.65 90.5 1022.602 0 0 48.11 44.14 -36.83 7.305 56.39 66 NAN NAN
2022-08-12 09:00:00.0 21168 60.29 60.29 60.29 56.48 80.6 1023.038 0 0 337.5 146 -83.4 62.56 60 66 NAN NAN
2022-08-12 10:00:00.0 21169 64.21 64.21 64.21 56.93 73.38 1023.051 0 0.132 34.15 254.4 -97.9 156.5 63.8 66 NAN NAN
2022-08-12 11:00:00.0 21170 68.09 68.09 68.09 58.07 68.21 1023.014 0 1.491 2.149 357.4 -106.2 251.2 72.4 66 NAN NAN
2022-08-12 12:00:00.0 21171 70.98 70.98 70.98 58.26 62.82 1023.145 0 0.263 299.8 455.8 -108.1 347.7 77.59 66 NAN NAN
2022-08-12 13:00:00.0 21172 73.49 73.49 73.49 55.93 50.29 1023.052 0 2.455 61.71 482 -92.3 389.6 79.53 66 NAN NAN
2022-08-12 14:00:00.0 21173 75.24 75.24 75.24 53.49 44.91 1022.862 0 0.438 23.26 488.2 -97.9 390.3 81 66 NAN NAN
2022-08-12 15:00:00.0 21174 76.48 76.48 76.48 52.43 49.21 1022.684 0.01 1.885 33.65 489.8 -96.5 393.3 79.71 66 NAN NAN
2022-08-12 16:00:00.0 21175 77.5 77.5 77.5 52.34 39.12 1022.377 0 3.683 35.62 513.9 -110.8 403.1 79.96 66 NAN NAN
2022-08-12 17:00:00.0 21176 77.58 77.58 77.58 51.36 41.62 1022.127 0 4.034 0.294 363.3 -103.9 259.4 82.2 66 NAN NAN
2022-08-12 18:00:00.0 21177 77.32 77.32 77.32 52.67 42.09 1021.76 0 0.526 21.63 269.5 -98.3 171.2 81.9 66 NAN NAN
2022-08-12 19:00:00.0 21178 76.52 76.52 76.52 53.07 49.45 1021.458 0 0.263 11.07 154.5 -90 64.45 79.69 66 NAN NAN
2022-08-12 20:00:00.0 21179 71.97 71.97 71.97 59.11 76.03 1021.521 0 0 16.43 37.93 -82 -44.12 74.39 66 NAN NAN
2022-08-12 21:00:00.0 21180 65.74 65.74 65.74 59.59 83.6 1021.918 0 0 7.471 0.493 -66.54 -66.05 65.91 66 NAN NAN
2022-08-12 22:00:00.0 21181 62.91 62.91 62.91 58.51 87 1022.143 0 0 2.15 -2.787 -40.87 -43.66 61.78 66 NAN NAN
2022-08-12 23:00:00.0 21182 61.3 61.3 61.3 57.7 88.6 1022.602 0 0 331 -2.92 -23.63 -26.55 60 66 NAN NAN
2022-08-13 00:00:00.0 21183 60.03 60.03 60.03 56.77 89.1 1022.914 0 0 329.8 -3.073 -18.34 -21.41 58.55 66 NAN NAN
2022-08-13 01:00:00.0 21184 58.78 58.78 58.78 55.72 89.7 1023.121 0 0 313.5 -3.097 -15.52 -18.62 57.35 66 NAN NAN
2022-08-13 02:00:00.0 21185 57.71 57.71 57.71 54.83 90.4 1023.036 0 0 328.4 -2.924 -14.25 -17.17 56.28 66 NAN NAN
2022-08-13 03:00:00.0 21186 56.76 56.76 56.76 53.99 90.6 1022.918 0 0 334.6 -2.72 -13.19 -15.91 55.24 66 NAN NAN
2022-08-13 04:00:00.0 21187 55.56 55.56 55.56 52.89 90.6 1022.937 0 0 320 -2.931 -12.29 -15.22 54.11 66 NAN NAN
2022-08-13 05:00:00.0 21188 55.01 55.01 55.01 52.42 91 1023.132 0 0 0.893 -2.775 -11.92 -14.7 53.61 66 NAN NAN
2022-08-13 06:00:00.0 21189 54.14 54.14 54.14 51.6 91.4 1023.309 0 0 10.2 -3.016 -14.62 -17.64 52.74 66 NAN NAN
2022-08-13 07:00:00.0 21190 53.57 53.57 53.57 51.07 91.4 1023.616 0 0 15.36 -1.257 -17.21 -18.46 52.2 66 NAN NAN
2022-08-13 08:00:00.0 21191 54.38 54.38 54.38 51.96 91.5 1023.718 0 0 308.4 49.21 -26.65 22.56 53.78 66 NAN NAN
2022-08-13 09:00:00.0 21192 58.26 58.26 58.26 55.76 90.9 1023.859 0 0 27.2 142.9 -79.58 63.34 59.31 66 NAN NAN
2022-08-13 10:00:00.0 21193 63.79 63.79 63.79 58.38 67.79 1023.903 0 0 35.18 251.8 -96.5 155.4 65.2 66 NAN NAN
2022-08-13 11:00:00.0 21194 70.34 70.34 70.34 55.36 54.98 1023.554 0 0 315.4 355.7 -111.5 244.3 75.75 66 NAN NAN
2022-08-13 12:00:00.0 21195 75.04 75.04 75.04 54.56 46.89 1023.442 0 0.658 336.6 449.3 -118.8 330.5 83.8 66 NAN NAN
2022-08-13 13:00:00.0 21196 77.2 77.2 77.2 47.85 35.92 1023.213 0 0 332 472 -115.1 356.9 85.3 66 NAN NAN
2022-08-13 14:00:00.0 21197 77.98 77.98 77.98 48.1 33.66 1022.742 0 0 196.3 513.8 -114.9 398.8 86.6 66 NAN NAN
2022-08-13 15:00:00.0 21198 78.8 78.8 78.8 47.97 36.08 1022.281 0 0 327.8 388.4 -94.9 293.5 86.9 66 NAN NAN
2022-08-13 16:00:00.0 21199 77.28 77.28 77.28 51.94 37.15 1021.432 0 0.044 125.5 165 -56.67 108.4 82.2 66 NAN NAN
2022-08-13 17:00:00.0 21200 75.8 75.8 75.8 56.64 44.09 1020.858 0 1.622 3.429 179.7 -55.85 123.8 78.74 66 NAN NAN
2022-08-13 18:00:00.0 21201 76.01 76.01 76.01 55.95 54.06 1020.383 0 1.841 21.39 178.3 -55.78 122.5 79.49 66 NAN NAN
2022-08-13 19:00:00.0 21202 73.44 73.44 73.44 59.62 62.8 1019.876 0 0 2.026 67.9 -44.9 23 75.45 66 NAN NAN
2022-08-13 20:00:00.0 21203 71.73 71.73 71.73 59.42 70.95 1019.921 0 0 42.14 30.05 -42.39 -12.34 72.71 66 NAN NAN